createdAt,value
2018-12-13T00:01:34.010Z,71.18
2018-12-13T00:04:37.326Z,71.07
2018-12-13T00:07:40.554Z,71.15
2018-12-13T00:10:43.815Z,71.63
2018-12-13T00:13:47.071Z,73.08
2018-12-13T00:16:50.410Z,73.03
2018-12-13T00:19:53.710Z,73.87
2018-12-13T00:22:56.919Z,75.36
2018-12-13T00:26:00.186Z,76.45
2018-12-13T00:29:03.392Z,76.84
2018-12-13T00:32:06.692Z,77.51
2018-12-13T00:35:09.957Z,77.50
2018-12-13T00:38:13.291Z,76.97
2018-12-13T00:41:16.527Z,77.27
2018-12-13T00:44:19.776Z,76.96
2018-12-13T00:47:22.996Z,76.87
2018-12-13T00:50:26.273Z,76.87
2018-12-13T00:53:29.500Z,77.14
2018-12-13T00:56:32.821Z,77.17
2018-12-13T00:59:36.060Z,77.53
2018-12-13T01:02:39.359Z,76.44
2018-12-13T01:05:42.555Z,75.53
2018-12-13T01:08:45.848Z,75.66
2018-12-13T01:11:49.260Z,73.35
2018-12-13T01:14:52.452Z,74.14
2018-12-13T01:17:55.668Z,74.79
2018-12-13T01:20:58.897Z,74.60
2018-12-13T01:24:02.134Z,75.21
2018-12-13T01:27:05.395Z,75.76
2018-12-13T01:30:08.681Z,76.05
2018-12-13T01:33:11.889Z,76.81
2018-12-13T01:36:15.317Z,76.87
2018-12-13T01:39:18.512Z,76.97
2018-12-13T01:42:21.810Z,76.96
2018-12-13T01:45:25.005Z,76.91
2018-12-13T01:48:28.301Z,76.86
2018-12-13T01:51:31.527Z,77.68
2018-12-13T01:54:34.792Z,77.12
2018-12-13T01:57:38.028Z,76.66
2018-12-13T02:00:41.283Z,77.22
2018-12-13T02:03:44.484Z,77.14
2018-12-13T02:06:47.879Z,77.10
2018-12-13T02:09:51.278Z,76.73
2018-12-13T02:12:54.481Z,76.15
2018-12-13T02:15:57.770Z,75.53
2018-12-13T02:19:00.974Z,75.54
2018-12-13T02:22:04.365Z,76.50
2018-12-13T02:25:07.622Z,76.52
2018-12-13T02:28:10.960Z,75.92
2018-12-13T02:31:14.250Z,75.27
2018-12-13T02:34:17.469Z,76.03
2018-12-13T02:37:20.730Z,76.04
2018-12-13T02:40:23.974Z,76.38
2018-12-13T02:43:27.237Z,76.04
2018-12-13T02:46:30.442Z,76.11
2018-12-13T02:49:33.673Z,75.03
2018-12-13T02:52:37.009Z,75.63
2018-12-13T02:55:40.325Z,75.58
2018-12-13T02:58:43.622Z,75.23
2018-12-13T03:01:46.921Z,75.94
2018-12-13T03:04:50.121Z,76.09
2018-12-13T03:07:53.374Z,76.30
2018-12-13T03:10:56.689Z,76.19
2018-12-13T03:14:00.057Z,76.18
2018-12-13T03:17:03.608Z,76.24
2018-12-13T03:20:06.912Z,76.00
2018-12-13T03:23:10.309Z,76.17
2018-12-13T03:26:13.553Z,76.08
2018-12-13T03:29:16.798Z,76.30
2018-12-13T03:32:20.009Z,75.60
2018-12-13T03:35:23.362Z,75.83
2018-12-13T03:38:26.605Z,75.77
2018-12-13T03:41:29.965Z,76.14
2018-12-13T03:44:33.192Z,76.03
2018-12-13T03:47:36.439Z,75.91
2018-12-13T03:50:39.658Z,75.35
2018-12-13T03:53:42.950Z,75.18
2018-12-13T03:56:46.180Z,74.47
2018-12-13T03:59:49.463Z,74.73
2018-12-13T04:02:52.863Z,74.78
2018-12-13T04:05:56.772Z,74.09
2018-12-13T04:08:59.998Z,74.39
2018-12-13T04:12:03.264Z,73.78
2018-12-13T04:15:06.559Z,73.90
2018-12-13T04:18:10.024Z,73.41
2018-12-13T04:21:13.361Z,73.23
2018-12-13T04:24:16.590Z,73.53
2018-12-13T04:27:19.853Z,73.50
2018-12-13T04:30:23.067Z,73.16
2018-12-13T04:33:26.344Z,72.76
2018-12-13T04:36:29.548Z,72.72
2018-12-13T04:39:32.780Z,72.47
2018-12-13T04:42:36.004Z,72.35
2018-12-13T04:45:39.255Z,72.37
2018-12-13T04:48:42.568Z,72.03
2018-12-13T04:51:45.822Z,71.94
2018-12-13T04:54:49.027Z,73.37
2018-12-13T04:57:52.358Z,74.93
2018-12-13T05:00:55.585Z,75.68
2018-12-13T05:03:58.849Z,75.12
2018-12-13T05:07:02.066Z,75.78
2018-12-13T05:10:05.912Z,75.80
2018-12-13T05:13:09.149Z,75.80
2018-12-13T05:16:12.378Z,75.26
2018-12-13T05:19:15.604Z,74.35
2018-12-13T05:22:18.895Z,74.49
2018-12-13T05:25:22.096Z,74.05
2018-12-13T05:28:25.375Z,73.57
2018-12-13T05:31:28.584Z,73.86
2018-12-13T05:34:31.877Z,72.68
2018-12-13T05:37:35.089Z,72.94
2018-12-13T05:40:38.373Z,72.97
2018-12-13T05:43:41.580Z,72.68
2018-12-13T05:46:44.811Z,73.03
2018-12-13T05:49:48.193Z,72.30
2018-12-13T05:52:51.456Z,72.27
2018-12-13T05:55:54.665Z,72.63
2018-12-13T05:58:57.892Z,72.89
2018-12-13T06:02:01.140Z,73.02
2018-12-13T06:05:05.849Z,72.57
2018-12-13T06:08:09.075Z,72.69
2018-12-13T06:11:12.365Z,73.14
2018-12-13T06:14:15.606Z,74.60
2018-12-13T06:17:19.636Z,76.19
2018-12-13T06:20:22.983Z,75.44
2018-12-13T06:23:26.188Z,75.11
2018-12-13T06:26:29.468Z,75.34
2018-12-13T06:29:32.709Z,74.80
2018-12-13T06:32:36.021Z,75.63
2018-12-13T06:35:39.233Z,75.82
2018-12-13T06:38:42.552Z,76.04
2018-12-13T06:41:45.753Z,75.86
2018-12-13T06:44:49.044Z,75.73
2018-12-13T06:47:52.248Z,75.44
2018-12-13T06:50:55.597Z,74.89
2018-12-13T06:53:58.935Z,75.62
2018-12-13T06:57:02.181Z,75.89
2018-12-13T07:00:08.323Z,75.25
2018-12-13T07:03:11.565Z,75.97
2018-12-13T07:06:14.896Z,76.93
2018-12-13T07:09:18.130Z,75.72
2018-12-13T07:12:21.369Z,75.05
2018-12-13T07:15:24.621Z,74.30
2018-12-13T07:18:27.956Z,74.78
2018-12-13T07:21:31.208Z,73.96
2018-12-13T07:24:34.466Z,73.59
2018-12-13T07:27:37.763Z,73.58
2018-12-13T07:30:41.059Z,73.92
2018-12-13T07:33:44.293Z,72.95
2018-12-13T07:36:47.565Z,72.37
2018-12-13T07:39:50.853Z,73.11
2018-12-13T07:42:54.120Z,72.64
2018-12-13T07:45:57.328Z,72.03
2018-12-13T07:49:00.638Z,72.34
2018-12-13T07:52:03.872Z,72.36
2018-12-13T07:55:07.232Z,70.89
2018-12-13T07:58:10.445Z,71.08
2018-12-13T08:01:13.724Z,70.72
2018-12-13T08:04:16.954Z,71.25
2018-12-13T08:07:20.220Z,70.53
2018-12-13T08:10:23.615Z,71.08
2018-12-13T08:13:26.915Z,70.80
2018-12-13T08:16:30.209Z,71.31
2018-12-13T08:19:33.432Z,72.07
2018-12-13T08:22:36.702Z,72.12
2018-12-13T08:25:39.922Z,71.04
2018-12-13T08:28:43.194Z,70.50
2018-12-13T08:31:46.491Z,71.07
2018-12-13T08:34:49.789Z,70.75
2018-12-13T08:37:52.992Z,69.72
2018-12-13T08:40:56.280Z,70.29
2018-12-13T08:43:59.486Z,69.77
2018-12-13T08:47:02.740Z,69.41
2018-12-13T08:50:06.137Z,70.70
2018-12-13T08:53:09.399Z,70.46
2018-12-13T08:56:12.740Z,69.49
2018-12-13T08:59:15.973Z,69.69
2018-12-13T09:02:19.223Z,70.49
2018-12-13T09:05:22.761Z,70.04
2018-12-13T09:08:26.010Z,70.66
2018-12-13T09:11:29.457Z,69.89
2018-12-13T09:14:32.856Z,68.96
2018-12-13T09:17:36.069Z,69.32
2018-12-13T09:20:39.299Z,69.37
2018-12-13T09:23:43.053Z,68.80
2018-12-13T09:26:46.340Z,69.14
2018-12-13T09:29:49.649Z,69.13
2018-12-13T09:32:52.946Z,68.49
2018-12-13T09:35:56.244Z,69.13
2018-12-13T09:38:59.449Z,69.44
2018-12-13T09:42:02.736Z,69.43
2018-12-13T09:45:07.536Z,69.26
2018-12-13T09:51:22.889Z,69.63
2018-12-13T09:54:26.146Z,69.52
2018-12-13T09:57:34.059Z,68.17
2018-12-13T10:00:37.308Z,69.67
2018-12-13T10:03:40.531Z,70.95
2018-12-13T10:06:43.836Z,70.87
2018-12-13T10:09:47.164Z,71.01
2018-12-13T10:12:50.428Z,70.69
2018-12-13T10:15:53.680Z,71.71
2018-12-13T10:18:56.912Z,70.11
2018-12-13T10:22:00.147Z,69.71
2018-12-13T10:25:03.437Z,69.70
2018-12-13T10:28:06.661Z,71.09
2018-12-13T10:31:09.917Z,69.65
2018-12-13T10:34:13.137Z,69.37
2018-12-13T10:37:16.378Z,68.11
2018-12-13T10:40:19.819Z,68.83
2018-12-13T10:43:23.077Z,68.08
2018-12-13T10:46:26.310Z,68.14
2018-12-13T10:49:29.568Z,66.92
2018-12-13T10:52:32.882Z,66.47
2018-12-13T10:55:36.100Z,66.22
2018-12-13T10:58:39.362Z,66.79
2018-12-13T11:05:03.584Z,67.72
2018-12-13T11:08:06.876Z,67.70
2018-12-13T11:11:10.100Z,66.91
2018-12-13T11:14:13.326Z,67.30
2018-12-13T11:17:16.615Z,67.83
2018-12-13T11:20:19.872Z,68.60
2018-12-13T11:23:23.101Z,68.66
2018-12-13T11:26:26.385Z,68.40
2018-12-13T11:33:24.753Z,69.70
2018-12-13T11:36:28.040Z,69.21
2018-12-13T11:39:31.260Z,69.81
2018-12-13T11:42:34.493Z,68.75
2018-12-13T11:45:37.761Z,69.85
2018-12-13T11:48:41.072Z,70.48
2018-12-13T11:51:44.463Z,71.08
2018-12-13T11:54:47.957Z,70.89
2018-12-13T11:57:51.262Z,71.91
2018-12-13T12:00:54.468Z,72.23
2018-12-13T12:03:57.754Z,72.76
2018-12-13T12:07:00.988Z,73.02
2018-12-13T12:10:04.660Z,73.22
2018-12-13T12:13:07.925Z,73.04
2018-12-13T12:16:11.128Z,74.01
2018-12-13T12:19:14.446Z,74.74
2018-12-13T12:22:17.796Z,74.84
2018-12-13T12:25:21.041Z,75.37
2018-12-13T12:28:24.337Z,74.90
2018-12-13T12:31:27.722Z,74.64
2018-12-13T12:34:30.949Z,75.61
2018-12-13T12:37:34.213Z,75.95
2018-12-13T12:40:37.435Z,75.48
2018-12-13T12:43:40.663Z,76.10
2018-12-13T12:46:43.918Z,75.49
2018-12-13T12:49:47.261Z,75.30
2018-12-13T12:52:50.493Z,75.20
2018-12-13T12:55:53.813Z,73.83
2018-12-13T12:58:57.029Z,73.01
2018-12-13T13:02:00.392Z,72.38
2018-12-13T13:05:04.660Z,73.62
2018-12-13T13:08:07.921Z,74.97
2018-12-13T13:11:11.144Z,73.95
2018-12-13T13:14:14.376Z,73.45
2018-12-13T13:17:17.608Z,73.93
2018-12-13T13:20:20.989Z,74.29
2018-12-13T13:23:24.197Z,72.04
2018-12-13T13:26:27.497Z,73.07
2018-12-13T13:29:30.713Z,73.68
2018-12-13T13:32:33.957Z,73.98
2018-12-13T13:35:37.275Z,72.55
2018-12-13T13:38:40.582Z,72.74
2018-12-13T13:41:43.828Z,72.81
2018-12-13T13:44:47.469Z,73.43
2018-12-13T13:47:50.793Z,72.04
2018-12-13T13:50:54.051Z,70.89
2018-12-13T13:53:57.303Z,71.27
2018-12-13T13:57:00.568Z,71.55
2018-12-13T14:00:06.829Z,72.15
2018-12-13T14:03:10.054Z,71.40
2018-12-13T14:06:13.279Z,71.48
2018-12-13T14:09:16.522Z,71.92
2018-12-13T14:12:19.733Z,72.94
2018-12-13T14:15:23.004Z,72.44
2018-12-13T14:18:26.237Z,72.67
2018-12-13T14:21:29.483Z,72.70
2018-12-13T14:24:32.794Z,73.34
2018-12-13T14:27:36.077Z,73.60
2018-12-13T14:30:39.320Z,71.89
2018-12-13T14:33:42.586Z,72.48
2018-12-13T14:36:45.893Z,72.81
2018-12-13T14:39:49.130Z,71.45
2018-12-13T14:42:52.448Z,71.03
2018-12-13T14:45:55.668Z,71.58
2018-12-13T14:48:58.979Z,71.76
2018-12-13T14:52:02.193Z,71.52
2018-12-13T14:55:05.500Z,71.97
2018-12-13T14:58:08.752Z,71.97
2018-12-13T15:01:12.021Z,72.02
2018-12-13T15:04:15.254Z,72.04
2018-12-13T15:07:18.548Z,72.68
2018-12-13T15:10:21.856Z,71.76
2018-12-13T15:13:25.178Z,71.63
2018-12-13T15:16:28.415Z,72.22
2018-12-13T15:19:31.682Z,70.97
2018-12-13T15:22:35.042Z,71.15
2018-12-13T15:25:38.272Z,71.12
2018-12-13T15:28:41.532Z,70.67
2018-12-13T15:31:44.741Z,70.72
2018-12-13T15:34:48.023Z,70.62
2018-12-13T15:37:51.273Z,70.73
2018-12-13T15:40:54.516Z,70.88
2018-12-13T15:43:57.911Z,70.46
2018-12-13T15:47:01.162Z,70.53
2018-12-13T15:50:06.486Z,70.82
2018-12-13T15:53:09.750Z,70.14
2018-12-13T15:56:13.004Z,70.34
2018-12-13T15:59:16.233Z,70.58
2018-12-13T16:02:19.542Z,69.03
2018-12-13T16:05:22.768Z,70.11
2018-12-13T16:08:25.997Z,69.71
2018-12-13T16:11:29.217Z,70.72
2018-12-13T16:14:32.444Z,69.68
2018-12-13T16:17:35.668Z,69.95
2018-12-13T16:20:38.897Z,69.08
2018-12-13T16:23:42.216Z,69.01
2018-12-13T16:26:45.492Z,69.30
2018-12-13T16:29:48.941Z,68.94
2018-12-13T16:32:52.174Z,67.76
2018-12-13T16:35:55.432Z,67.94
2018-12-13T16:38:58.673Z,67.41
2018-12-13T16:42:01.934Z,67.27
2018-12-13T16:45:05.609Z,67.77
2018-12-13T16:48:08.929Z,68.06
2018-12-13T16:51:12.260Z,67.95
2018-12-13T16:54:15.534Z,68.30
2018-12-13T16:57:18.745Z,69.08
2018-12-13T17:00:22.004Z,69.46
2018-12-13T17:03:39.176Z,68.70
2018-12-13T17:06:42.597Z,68.88
2018-12-13T17:09:46.264Z,68.77
2018-12-13T17:12:49.484Z,68.69
2018-12-13T17:15:52.795Z,68.99
2018-12-13T17:18:56.099Z,69.41
2018-12-13T17:21:59.353Z,69.72
2018-12-13T17:25:02.589Z,69.45
2018-12-13T17:28:05.844Z,69.26
2018-12-13T17:31:09.074Z,69.13
2018-12-13T17:34:12.364Z,68.89
2018-12-13T17:37:15.918Z,68.86
2018-12-13T17:40:23.090Z,68.66
2018-12-13T17:43:24.504Z,69.50
2018-12-13T17:46:27.761Z,69.21
2018-12-13T17:49:31.019Z,69.88
2018-12-13T17:52:34.261Z,69.12
2018-12-13T17:55:37.508Z,69.40
2018-12-13T17:58:40.812Z,69.50
2018-12-13T18:01:44.044Z,69.81
2018-12-13T18:04:47.310Z,70.23
2018-12-13T18:07:50.697Z,69.53
2018-12-13T18:10:53.952Z,68.92
2018-12-13T18:13:57.485Z,68.94
2018-12-13T18:17:00.736Z,69.05
2018-12-13T18:20:05.105Z,69.16
2018-12-13T18:23:08.397Z,69.30
2018-12-13T18:26:11.796Z,68.97
2018-12-13T18:29:15.112Z,68.99
2018-12-13T18:32:18.500Z,69.05
2018-12-13T18:35:22.522Z,67.92
2018-12-13T18:38:25.804Z,68.09
2018-12-13T18:41:29.311Z,66.74
2018-12-13T18:44:33.324Z,68.12
2018-12-13T18:47:36.719Z,68.28
2018-12-13T18:50:40.542Z,68.16
2018-12-13T18:53:43.833Z,67.94
2018-12-13T18:56:47.139Z,69.00
2018-12-13T18:59:50.352Z,69.14
2018-12-13T19:02:53.672Z,68.67
2018-12-13T19:05:57.021Z,69.20
2018-12-13T19:09:00.312Z,68.32
2018-12-13T19:12:03.611Z,68.70
2018-12-13T19:15:07.227Z,67.82
2018-12-13T19:18:10.464Z,66.82
2018-12-13T19:21:14.338Z,67.54
2018-12-13T19:24:18.143Z,67.15
2018-12-13T19:27:21.465Z,66.47
2018-12-13T19:30:24.725Z,66.42
2018-12-13T19:33:28.443Z,66.48
2018-12-13T19:36:32.212Z,65.85
2018-12-13T19:39:35.550Z,65.35
2018-12-13T19:42:38.761Z,65.98
2018-12-13T19:45:42.130Z,65.52
2018-12-13T19:48:45.419Z,65.40
2018-12-13T19:51:48.740Z,65.58
2018-12-13T19:54:52.048Z,66.09
2018-12-13T19:57:55.425Z,64.87
2018-12-13T20:01:04.671Z,64.64
2018-12-13T20:04:07.971Z,65.69
2018-12-13T20:07:11.176Z,65.77
2018-12-13T20:10:14.488Z,64.80
2018-12-13T20:13:17.732Z,65.96
2018-12-13T20:16:21.392Z,65.43
2018-12-13T20:19:24.690Z,65.34
2018-12-13T20:22:27.954Z,65.87
2018-12-13T20:25:31.178Z,66.04
2018-12-13T20:28:34.438Z,64.97
2018-12-13T20:31:37.734Z,65.28
2018-12-13T20:34:41.969Z,64.84
2018-12-13T20:37:45.915Z,64.10
2018-12-13T20:40:49.868Z,63.52
2018-12-13T20:43:53.188Z,65.19
2018-12-13T20:46:57.103Z,65.03
2018-12-13T20:50:00.364Z,64.07
2018-12-13T20:53:03.695Z,64.37
2018-12-13T20:56:06.992Z,64.51
2018-12-13T20:59:10.483Z,64.01
2018-12-13T21:02:13.792Z,63.75
2018-12-13T21:05:17.021Z,63.66
2018-12-13T21:08:32.505Z,63.79
2018-12-13T21:11:38.046Z,63.91
2018-12-13T21:14:45.647Z,63.28
2018-12-13T21:17:49.708Z,64.52
2018-12-13T21:20:53.491Z,64.68
2018-12-13T21:24:14.050Z,65.26
2018-12-13T21:27:17.280Z,64.43
2018-12-13T21:30:20.525Z,64.24
2018-12-13T21:33:23.833Z,63.86
2018-12-13T21:36:27.065Z,65.38
2018-12-13T21:39:30.324Z,65.99
2018-12-13T21:42:33.540Z,65.64
2018-12-13T21:45:36.798Z,65.23
2018-12-13T21:48:41.038Z,65.26
2018-12-13T21:51:44.248Z,63.86
2018-12-13T21:54:47.496Z,63.63
2018-12-13T21:57:51.964Z,63.99
2018-12-13T22:00:55.452Z,63.84
2018-12-13T22:03:58.708Z,64.50
2018-12-13T22:07:02.049Z,65.19
2018-12-13T22:10:07.533Z,64.97
2018-12-13T22:13:11.922Z,65.21
2018-12-13T22:16:16.240Z,65.83
2018-12-13T22:19:19.602Z,66.02
2018-12-13T22:22:22.938Z,66.11
2018-12-13T22:25:26.232Z,65.60
2018-12-13T22:28:29.531Z,66.69
2018-12-13T22:31:32.764Z,65.83
2018-12-13T22:34:36.227Z,65.59
2018-12-13T22:37:39.736Z,65.80
2018-12-13T22:40:43.832Z,67.47
2018-12-13T22:43:47.090Z,67.26
2018-12-13T22:46:51.157Z,66.97
2018-12-13T22:49:54.379Z,66.46
2018-12-13T22:52:58.349Z,66.85
2018-12-13T22:56:01.673Z,66.76
2018-12-13T22:59:04.954Z,66.14
2018-12-13T23:02:08.344Z,67.07
2018-12-13T23:05:11.851Z,67.56
2018-12-13T23:08:15.466Z,67.03
2018-12-13T23:11:18.762Z,67.75
2018-12-13T23:14:22.556Z,68.02
2018-12-13T23:17:26.073Z,67.02
2018-12-13T23:20:29.863Z,68.06
2018-12-13T23:23:38.020Z,68.17
2018-12-13T23:26:41.291Z,67.77
2018-12-13T23:29:45.277Z,67.67
2018-12-13T23:32:48.540Z,67.62
2018-12-13T23:35:51.795Z,68.12
2018-12-13T23:38:55.081Z,67.67
2018-12-13T23:41:58.389Z,66.92
2018-12-13T23:45:02.301Z,67.94
2018-12-13T23:48:05.598Z,68.73
2018-12-13T23:51:09.597Z,68.31
2018-12-13T23:54:12.892Z,67.75
2018-12-13T23:57:16.420Z,69.26
